Terminal Aerodrome Forecast
Issued by NWS

Home | Current Version | Previous Version | Graphics & Text | Print | Product List | Glossary On
Versions: 1 2 3 4 5 6 7 8 9 10 11 12 13 14 15 16 17 18 19 20 21 22 23 24 25 26 27 28 29 30 31 32
715
FTUS43 KLOT 250848 AAA
TAFMDW
TAF AMD
KMDW 250848Z 2509/2606 22007KT 6SM -SHRA VCTS SCT030CB BKN040
      BKN100
      TEMPO 2510/2512 4SM SHRA OVC015
     FM251200 29007KT P6SM VCSH BKN025
     FM251900 31010KT P6SM SCT035
     FM260100 29005KT P6SM FEW150 SCT250=

USA.gov is the U.S. government's official web portal to all federal, state and local government web resources and services.